createdAt,value
2019-06-26T00:00:07.744Z,26.83
2019-06-26T00:01:07.728Z,26.89
2019-06-26T00:02:07.715Z,26.78
2019-06-26T00:03:07.733Z,26.78
2019-06-26T00:04:07.698Z,26.88
2019-06-26T00:05:07.703Z,26.78
2019-06-26T00:06:07.679Z,26.74
2019-06-26T00:07:07.663Z,26.80
2019-06-26T00:08:07.651Z,26.80
2019-06-26T00:09:07.639Z,26.80
2019-06-26T00:10:07.635Z,26.77
2019-06-26T00:11:07.639Z,26.77
2019-06-26T00:12:07.611Z,26.70
2019-06-26T00:13:07.602Z,26.63
2019-06-26T00:14:07.583Z,26.65
2019-06-26T00:15:07.578Z,26.70
2019-06-26T00:16:07.563Z,26.63
2019-06-26T00:17:07.562Z,26.62
2019-06-26T00:18:07.665Z,26.62
2019-06-26T00:19:07.538Z,26.59
2019-06-26T00:20:07.522Z,26.52
2019-06-26T00:21:07.510Z,26.53
2019-06-26T00:22:07.518Z,26.45
2019-06-26T00:23:07.503Z,26.40
2019-06-26T00:24:07.478Z,26.34
2019-06-26T00:25:07.492Z,26.41
2019-06-26T00:28:55.682Z,26.38
2019-06-26T00:29:26.874Z,26.33
2019-06-26T00:30:26.866Z,26.22
2019-06-26T00:31:26.851Z,26.31
2019-06-26T00:32:26.838Z,26.23
2019-06-26T00:33:33.888Z,26.26
2019-06-26T00:34:26.830Z,26.23
2019-06-26T00:35:26.798Z,26.18
2019-06-26T00:36:26.790Z,26.29
2019-06-26T00:37:26.782Z,26.28
2019-06-26T00:38:26.784Z,26.16
2019-06-26T00:39:26.755Z,26.07
2019-06-26T00:40:26.782Z,26.07
2019-06-26T00:41:26.735Z,26.07
2019-06-26T00:42:26.730Z,26.06
2019-06-26T00:43:41.537Z,26.03
2019-06-26T00:44:27.742Z,26.03
2019-06-26T00:45:26.692Z,26.00
2019-06-26T00:46:26.698Z,26.02
2019-06-26T00:47:26.670Z,25.96
2019-06-26T00:48:26.682Z,25.93
2019-06-26T00:49:26.655Z,25.98
2019-06-26T00:50:26.654Z,26.00
2019-06-26T00:51:26.654Z,25.98
2019-06-26T00:52:26.626Z,25.95
2019-06-26T00:53:26.606Z,25.91
2019-06-26T00:54:26.590Z,25.81
2019-06-26T00:55:26.578Z,25.80
2019-06-26T00:56:26.594Z,25.88
2019-06-26T00:57:26.558Z,25.75
2019-06-26T00:58:26.555Z,25.80
2019-06-26T00:59:26.536Z,25.78
2019-06-26T01:00:26.527Z,25.80
2019-06-26T01:01:26.515Z,25.80
2019-06-26T01:02:26.518Z,25.77
2019-06-26T01:03:26.490Z,25.73
2019-06-26T01:04:26.481Z,25.72
2019-06-26T01:05:26.470Z,25.77
2019-06-26T01:06:26.458Z,25.63
2019-06-26T01:07:26.453Z,25.60
2019-06-26T01:08:26.456Z,25.66
2019-06-26T01:09:26.427Z,25.63
2019-06-26T01:10:26.422Z,25.68
2019-06-26T01:11:26.409Z,25.63
2019-06-26T01:12:26.390Z,25.63
2019-06-26T01:13:26.385Z,25.72
2019-06-26T01:14:26.466Z,25.53
2019-06-26T01:15:26.382Z,25.51
2019-06-26T01:16:26.362Z,25.54
2019-06-26T01:17:26.336Z,25.55
2019-06-26T01:18:26.350Z,25.48
2019-06-26T01:19:26.323Z,25.50
2019-06-26T01:20:26.315Z,25.47
2019-06-26T01:21:26.294Z,25.47
2019-06-26T01:22:26.300Z,25.53
2019-06-26T01:23:26.282Z,25.50
2019-06-26T01:24:26.258Z,25.47
2019-06-26T01:25:26.250Z,25.50
2019-06-26T01:26:26.237Z,25.40
2019-06-26T01:27:26.230Z,25.46
2019-06-26T01:28:26.250Z,25.41
2019-06-26T01:29:26.206Z,25.43
2019-06-26T01:30:26.206Z,25.43
2019-06-26T01:31:26.202Z,25.36
2019-06-26T01:32:26.170Z,25.38
2019-06-26T01:33:26.158Z,25.43
2019-06-26T01:34:26.170Z,25.31
2019-06-26T01:35:26.152Z,25.31
2019-06-26T01:36:26.122Z,25.32
2019-06-26T01:37:26.123Z,25.36
2019-06-26T01:38:26.102Z,25.31
2019-06-26T01:39:26.138Z,25.25
2019-06-26T01:40:26.078Z,25.28
2019-06-26T01:41:26.096Z,25.26
2019-06-26T01:42:26.062Z,25.21
2019-06-26T01:43:26.046Z,25.26
2019-06-26T01:44:26.038Z,25.17
2019-06-26T01:45:26.042Z,25.18
2019-06-26T01:46:26.015Z,25.10
2019-06-26T01:47:26.002Z,25.13
2019-06-26T01:48:25.991Z,25.26
2019-06-26T01:49:25.986Z,25.14
2019-06-26T01:50:25.973Z,25.25
2019-06-26T01:51:26.226Z,25.23
2019-06-26T01:52:25.961Z,25.10
2019-06-26T01:53:25.976Z,25.07
2019-06-26T01:54:25.927Z,25.10
2019-06-26T01:55:25.914Z,25.11
2019-06-26T01:56:25.912Z,25.10
2019-06-26T01:57:25.922Z,24.99
2019-06-26T01:58:25.899Z,25.03
2019-06-26T01:59:25.871Z,24.98
2019-06-26T02:00:25.862Z,24.96
2019-06-26T02:01:25.854Z,24.99
2019-06-26T02:02:25.839Z,25.01
2019-06-26T02:03:25.858Z,25.04
2019-06-26T02:04:25.819Z,25.03
2019-06-26T02:05:25.802Z,24.98
2019-06-26T02:06:25.833Z,24.99
2019-06-26T02:07:25.829Z,24.99
2019-06-26T02:08:25.771Z,24.96
2019-06-26T02:09:25.798Z,25.01
2019-06-26T02:10:25.749Z,24.92
2019-06-26T02:11:25.738Z,24.89
2019-06-26T02:12:25.730Z,24.88
2019-06-26T02:13:25.714Z,24.92
2019-06-26T02:14:31.086Z,24.89
2019-06-26T02:15:26.703Z,24.88
2019-06-26T02:16:25.679Z,24.91
2019-06-26T02:17:25.666Z,24.88
2019-06-26T02:18:25.673Z,24.85
2019-06-26T02:19:25.661Z,24.84
2019-06-26T02:20:25.683Z,24.86
2019-06-26T02:21:25.626Z,24.80
2019-06-26T02:22:25.615Z,24.78
2019-06-26T02:23:25.614Z,24.88
2019-06-26T02:24:25.593Z,24.88
2019-06-26T02:25:25.594Z,24.80
2019-06-26T02:26:25.635Z,24.84
2019-06-26T02:27:25.570Z,24.76
2019-06-26T02:28:25.565Z,24.78
2019-06-26T02:29:25.534Z,24.73
2019-06-26T02:30:25.539Z,24.70
2019-06-26T02:31:25.523Z,24.77
2019-06-26T02:32:25.519Z,24.74
2019-06-26T02:33:25.498Z,24.74
2019-06-26T02:34:25.498Z,24.63
2019-06-26T02:35:25.479Z,24.68
2019-06-26T02:36:25.466Z,24.66
2019-06-26T02:37:25.447Z,24.54
2019-06-26T02:38:25.436Z,24.51
2019-06-26T02:39:25.449Z,24.58
2019-06-26T02:40:25.422Z,24.54
2019-06-26T02:41:25.419Z,24.48
2019-06-26T02:42:25.386Z,24.51
2019-06-26T02:43:25.397Z,24.45
2019-06-26T02:44:25.371Z,24.47
2019-06-26T02:45:25.388Z,24.40
2019-06-26T02:46:25.343Z,24.36
2019-06-26T02:47:25.338Z,24.36
2019-06-26T02:48:25.333Z,24.29
2019-06-26T02:49:25.343Z,24.35
2019-06-26T02:50:25.307Z,24.35
2019-06-26T02:51:25.302Z,24.33
2019-06-26T02:52:25.377Z,24.29
2019-06-26T02:53:25.297Z,24.32
2019-06-26T02:54:25.345Z,24.18
2019-06-26T02:55:25.246Z,24.18
2019-06-26T02:56:25.237Z,24.23
2019-06-26T02:57:25.220Z,24.28
2019-06-26T02:58:25.234Z,24.18
2019-06-26T02:59:25.207Z,24.29
2019-06-26T03:00:25.187Z,24.24
2019-06-26T03:01:25.177Z,24.29
2019-06-26T03:02:25.174Z,24.18
2019-06-26T03:03:25.160Z,24.23
2019-06-26T03:04:25.194Z,24.24
2019-06-26T03:05:25.130Z,24.23
2019-06-26T03:06:25.122Z,24.18
2019-06-26T03:07:25.108Z,24.16
2019-06-26T03:08:25.104Z,24.18
2019-06-26T03:09:25.090Z,24.23
2019-06-26T03:10:25.086Z,24.17
2019-06-26T03:11:25.094Z,24.18
2019-06-26T03:12:25.052Z,24.26
2019-06-26T03:13:25.045Z,24.20
2019-06-26T03:14:25.029Z,24.16
2019-06-26T03:15:25.036Z,24.16
2019-06-26T03:16:25.009Z,24.13
2019-06-26T03:17:25.031Z,24.13
2019-06-26T03:18:24.994Z,24.14
2019-06-26T03:19:24.977Z,24.10
2019-06-26T03:20:24.961Z,24.18
2019-06-26T03:21:24.950Z,24.14
2019-06-26T03:22:24.946Z,24.06
2019-06-26T03:23:25.038Z,24.17
2019-06-26T03:24:24.946Z,24.20
2019-06-26T03:25:24.906Z,24.16
2019-06-26T03:26:24.906Z,24.14
2019-06-26T03:27:24.886Z,24.08
2019-06-26T03:28:24.922Z,24.11
2019-06-26T03:29:24.878Z,24.14
2019-06-26T03:30:24.862Z,24.16
2019-06-26T03:31:24.847Z,24.20
2019-06-26T03:32:24.831Z,24.11
2019-06-26T03:33:24.818Z,24.17
2019-06-26T03:34:24.830Z,24.13
2019-06-26T03:35:24.918Z,24.16
2019-06-26T03:36:24.785Z,24.13
2019-06-26T03:37:24.774Z,24.08
2019-06-26T03:38:24.765Z,24.14
2019-06-26T03:39:24.750Z,24.08
2019-06-26T03:40:24.811Z,24.05
2019-06-26T03:41:24.753Z,24.01
2019-06-26T03:42:24.719Z,24.06
2019-06-26T03:43:24.712Z,24.10
2019-06-26T03:44:24.693Z,24.06
2019-06-26T03:45:26.393Z,24.17
2019-06-26T03:46:24.675Z,24.14
2019-06-26T03:47:24.673Z,24.06
2019-06-26T03:48:24.664Z,24.06
2019-06-26T03:49:24.766Z,24.10
2019-06-26T03:50:24.650Z,24.17
2019-06-26T03:51:24.624Z,24.02
2019-06-26T03:52:24.610Z,23.99
2019-06-26T03:53:24.595Z,23.99
2019-06-26T03:54:24.582Z,24.08
2019-06-26T03:55:24.654Z,24.02
2019-06-26T03:56:24.558Z,24.03
2019-06-26T03:57:24.550Z,24.10
2019-06-26T03:58:24.538Z,24.05
2019-06-26T03:59:24.574Z,24.02
2019-06-26T04:00:24.574Z,24.08
2019-06-26T04:01:24.538Z,24.10
2019-06-26T04:02:24.493Z,24.03
2019-06-26T04:03:24.489Z,24.06
2019-06-26T04:04:24.470Z,24.14
2019-06-26T04:05:24.525Z,24.10
2019-06-26T04:06:24.445Z,24.06
2019-06-26T04:07:24.473Z,24.01
2019-06-26T04:08:24.486Z,24.05
2019-06-26T04:09:24.422Z,23.93
2019-06-26T04:10:24.405Z,23.92
2019-06-26T04:11:24.415Z,23.93
2019-06-26T04:12:24.391Z,23.92
2019-06-26T04:13:24.386Z,23.93
2019-06-26T04:14:24.357Z,23.96
2019-06-26T04:15:32.142Z,23.91
2019-06-26T04:16:25.339Z,23.93
2019-06-26T04:17:24.326Z,23.99
2019-06-26T04:18:24.329Z,23.92
2019-06-26T04:19:24.341Z,23.91
2019-06-26T04:20:24.302Z,23.93
2019-06-26T04:21:24.278Z,24.01
2019-06-26T04:22:24.270Z,23.93
2019-06-26T04:23:24.258Z,23.96
2019-06-26T04:24:24.266Z,23.96
2019-06-26T04:25:24.234Z,24.01
2019-06-26T04:26:24.234Z,23.93
2019-06-26T04:27:24.258Z,24.01
2019-06-26T04:28:24.203Z,23.98
2019-06-26T04:29:24.210Z,24.01
2019-06-26T04:30:24.178Z,23.93
2019-06-26T04:31:24.199Z,23.91
2019-06-26T04:32:24.154Z,23.98
2019-06-26T04:33:24.192Z,24.08
2019-06-26T04:34:24.134Z,24.02
2019-06-26T04:35:24.127Z,23.95
2019-06-26T04:36:24.118Z,24.01
2019-06-26T04:37:24.106Z,24.06
2019-06-26T04:38:24.090Z,24.02
2019-06-26T04:39:24.114Z,24.03
2019-06-26T04:40:24.066Z,24.03
2019-06-26T04:41:24.054Z,23.98
2019-06-26T04:42:24.042Z,23.98
2019-06-26T04:43:24.039Z,23.96
2019-06-26T04:44:24.038Z,23.95
2019-06-26T04:45:24.018Z,23.99
2019-06-26T04:46:24.019Z,24.05
2019-06-26T04:47:23.998Z,24.03
2019-06-26T04:48:23.973Z,24.01
2019-06-26T04:49:23.987Z,24.01
2019-06-26T04:50:23.958Z,23.98
2019-06-26T04:51:23.945Z,23.98
2019-06-26T04:52:23.958Z,24.02
2019-06-26T04:53:23.922Z,24.01
2019-06-26T04:54:23.918Z,24.01
2019-06-26T04:55:23.905Z,24.03
2019-06-26T04:56:23.886Z,23.98
2019-06-26T04:57:23.873Z,24.01
2019-06-26T04:58:23.878Z,23.95
2019-06-26T04:59:23.871Z,23.95
2019-06-26T05:00:23.843Z,23.96
2019-06-26T05:01:23.831Z,24.03
2019-06-26T05:02:23.833Z,24.01
2019-06-26T05:03:23.811Z,23.99
2019-06-26T05:04:23.798Z,23.99
2019-06-26T05:05:38.515Z,24.03
2019-06-26T05:06:24.775Z,24.02
2019-06-26T05:07:23.762Z,24.08
2019-06-26T05:08:23.754Z,23.99
2019-06-26T05:09:23.744Z,23.99
2019-06-26T05:10:23.738Z,24.08
2019-06-26T05:11:23.738Z,24.08
2019-06-26T05:12:23.706Z,24.08
2019-06-26T05:13:23.699Z,24.10
2019-06-26T05:14:23.686Z,24.14
2019-06-26T05:15:23.674Z,24.11
2019-06-26T05:16:23.663Z,24.14
2019-06-26T05:17:23.683Z,24.14
2019-06-26T05:18:23.642Z,24.20
2019-06-26T05:19:23.634Z,24.17
2019-06-26T05:20:23.618Z,24.16
2019-06-26T05:21:23.614Z,24.20
2019-06-26T05:22:23.594Z,24.23
2019-06-26T05:23:23.610Z,24.21
2019-06-26T05:24:23.574Z,24.30
2019-06-26T05:25:23.562Z,24.35
2019-06-26T05:26:23.566Z,24.33
2019-06-26T05:27:23.538Z,24.29
2019-06-26T05:28:23.526Z,24.38
2019-06-26T05:29:23.527Z,24.35
2019-06-26T05:30:23.525Z,24.38
2019-06-26T05:31:23.506Z,24.35
2019-06-26T05:32:23.503Z,24.43
2019-06-26T05:33:23.486Z,24.40
2019-06-26T05:34:23.500Z,24.40
2019-06-26T05:35:23.454Z,24.42
2019-06-26T05:36:23.441Z,24.42
2019-06-26T05:37:23.430Z,24.38
2019-06-26T05:38:23.418Z,24.43
2019-06-26T05:39:23.406Z,24.53
2019-06-26T05:40:23.410Z,24.50
2019-06-26T05:41:23.399Z,24.55
2019-06-26T05:42:23.389Z,24.55
2019-06-26T05:43:23.359Z,24.54
2019-06-26T05:44:23.350Z,24.55
2019-06-26T05:45:23.366Z,24.65
2019-06-26T05:46:30.934Z,24.58
2019-06-26T05:47:24.314Z,24.60
2019-06-26T05:48:23.306Z,24.61
2019-06-26T05:49:23.298Z,24.66
2019-06-26T05:50:23.282Z,24.65
2019-06-26T05:51:23.297Z,24.65
2019-06-26T05:52:23.278Z,24.66
2019-06-26T05:53:23.287Z,24.65
2019-06-26T05:54:23.278Z,24.70
2019-06-26T05:55:23.245Z,24.70
2019-06-26T05:56:23.215Z,24.68
2019-06-26T05:57:23.202Z,24.65
2019-06-26T05:58:23.215Z,24.70
2019-06-26T05:59:23.187Z,24.73
2019-06-26T06:00:23.184Z,24.80
2019-06-26T06:01:23.159Z,24.74
2019-06-26T06:02:23.415Z,24.76
2019-06-26T06:03:23.158Z,24.85
2019-06-26T06:04:23.134Z,24.86
2019-06-26T06:05:23.139Z,24.85
2019-06-26T06:06:23.107Z,24.88
2019-06-26T06:07:23.094Z,24.88
2019-06-26T06:08:23.086Z,24.86
2019-06-26T06:09:23.082Z,24.93
2019-06-26T06:10:23.164Z,24.89
2019-06-26T06:11:23.050Z,24.93
2019-06-26T06:12:23.033Z,24.99
2019-06-26T06:13:23.030Z,25.06
2019-06-26T06:14:23.042Z,25.01
2019-06-26T06:15:23.017Z,24.99
2019-06-26T06:16:22.994Z,25.13
2019-06-26T06:17:23.000Z,25.07
2019-06-26T06:18:22.966Z,25.11
2019-06-26T06:19:22.962Z,25.22
2019-06-26T06:20:22.970Z,25.21
2019-06-26T06:21:22.940Z,25.13
2019-06-26T06:22:22.930Z,25.22
2019-06-26T06:23:22.910Z,25.25
2019-06-26T06:24:22.908Z,25.18
2019-06-26T06:25:22.890Z,25.22
2019-06-26T06:26:22.901Z,25.22
2019-06-26T06:27:22.875Z,25.23
2019-06-26T06:28:22.869Z,25.23
2019-06-26T06:29:22.846Z,25.25
2019-06-26T06:30:22.848Z,25.25
2019-06-26T06:31:22.826Z,25.21
2019-06-26T06:32:22.814Z,25.28
2019-06-26T06:33:22.802Z,25.10
2019-06-26T06:34:22.806Z,25.23
2019-06-26T06:35:22.778Z,25.22
2019-06-26T06:36:22.767Z,25.21
2019-06-26T06:37:22.754Z,25.18
2019-06-26T06:38:22.746Z,25.26
2019-06-26T06:39:22.743Z,25.21
2019-06-26T06:40:22.754Z,25.22
2019-06-26T06:41:22.709Z,25.21
2019-06-26T06:42:22.702Z,25.23
2019-06-26T06:43:22.754Z,25.21
2019-06-26T06:44:22.689Z,25.23
2019-06-26T06:45:22.677Z,25.25
2019-06-26T06:46:22.659Z,25.18
2019-06-26T06:47:22.646Z,25.29
2019-06-26T06:48:22.645Z,25.26
2019-06-26T06:49:22.634Z,25.31
2019-06-26T06:50:22.614Z,25.22
2019-06-26T06:51:22.597Z,25.32
2019-06-26T06:52:22.609Z,25.35
2019-06-26T06:53:22.611Z,25.35
2019-06-26T06:54:22.565Z,25.33
2019-06-26T06:55:22.562Z,25.43
2019-06-26T06:56:22.549Z,25.43
2019-06-26T06:57:22.530Z,25.43
2019-06-26T06:58:22.545Z,25.62
2019-06-26T06:59:22.510Z,25.55
2019-06-26T07:00:22.506Z,25.51
2019-06-26T07:01:22.487Z,25.63
2019-06-26T07:02:22.487Z,25.60
2019-06-26T07:03:22.481Z,25.66
2019-06-26T07:04:22.487Z,25.63
2019-06-26T07:05:22.442Z,25.50
2019-06-26T07:06:22.434Z,25.55
2019-06-26T07:07:22.431Z,25.65
2019-06-26T07:08:22.409Z,25.68
2019-06-26T07:09:22.398Z,25.73
2019-06-26T07:10:22.410Z,25.68
2019-06-26T07:11:22.385Z,25.81
2019-06-26T07:12:22.369Z,25.78
2019-06-26T07:13:22.355Z,25.75
2019-06-26T07:14:22.342Z,25.85
2019-06-26T07:15:22.334Z,25.83
2019-06-26T07:16:22.337Z,25.81
2019-06-26T07:17:22.311Z,25.83
2019-06-26T07:18:22.301Z,25.90
2019-06-26T07:19:22.290Z,25.95
2019-06-26T07:20:22.359Z,25.96
2019-06-26T07:21:22.281Z,25.90
2019-06-26T07:22:22.262Z,25.88
2019-06-26T07:23:22.252Z,25.93
2019-06-26T07:24:22.239Z,26.00
2019-06-26T07:25:22.225Z,26.02
2019-06-26T07:26:22.209Z,26.06
2019-06-26T07:27:22.228Z,25.95
2019-06-26T07:28:22.341Z,26.09
2019-06-26T07:29:22.208Z,26.09
2019-06-26T07:30:22.242Z,26.10
2019-06-26T07:31:22.157Z,26.09
2019-06-26T07:32:22.149Z,26.07
2019-06-26T07:33:22.161Z,26.10
2019-06-26T07:34:22.125Z,26.26
2019-06-26T07:35:22.117Z,26.25
2019-06-26T07:36:22.101Z,26.36
2019-06-26T07:37:22.089Z,26.34
2019-06-26T07:38:22.096Z,26.47
2019-06-26T07:39:22.098Z,26.41
2019-06-26T07:40:22.076Z,26.40
2019-06-26T07:41:22.080Z,26.47
2019-06-26T07:42:22.050Z,26.48
2019-06-26T07:43:22.031Z,26.55
2019-06-26T07:44:22.025Z,26.45
2019-06-26T07:45:24.198Z,26.48
2019-06-26T07:46:21.990Z,26.41
2019-06-26T07:47:28.125Z,26.48
2019-06-26T07:48:22.979Z,26.51
2019-06-26T07:49:21.962Z,26.43
2019-06-26T07:50:21.993Z,26.48
2019-06-26T07:51:21.983Z,26.47
2019-06-26T07:52:21.949Z,26.55
2019-06-26T07:53:21.913Z,26.63
2019-06-26T07:54:21.910Z,26.59
2019-06-26T07:55:21.905Z,26.66
2019-06-26T07:56:21.994Z,26.74
2019-06-26T07:57:21.883Z,26.81
2019-06-26T07:58:21.860Z,26.80
2019-06-26T07:59:21.862Z,26.93
2019-06-26T08:00:21.861Z,26.99
2019-06-26T08:01:21.908Z,27.05
2019-06-26T08:02:21.833Z,27.11
2019-06-26T08:03:21.842Z,27.20
2019-06-26T08:04:21.819Z,27.03
2019-06-26T08:05:21.790Z,27.08
2019-06-26T08:06:21.781Z,27.25
2019-06-26T08:07:21.786Z,27.11
2019-06-26T08:08:21.750Z,27.14
2019-06-26T08:09:21.735Z,27.12
2019-06-26T08:10:21.755Z,27.03
2019-06-26T08:11:21.717Z,26.89
2019-06-26T08:12:21.725Z,26.96
2019-06-26T08:13:21.690Z,27.05
2019-06-26T08:14:21.754Z,27.03
2019-06-26T08:15:21.670Z,27.03
2019-06-26T08:16:21.662Z,27.15
2019-06-26T08:17:21.666Z,27.25
2019-06-26T08:18:21.650Z,27.40
2019-06-26T08:19:21.642Z,27.47
2019-06-26T08:20:21.614Z,27.60
2019-06-26T08:21:21.602Z,27.59
2019-06-26T08:22:21.594Z,27.68
2019-06-26T08:23:21.590Z,27.67
2019-06-26T08:24:21.602Z,27.58
2019-06-26T08:25:21.561Z,27.58
2019-06-26T08:26:21.546Z,27.54
2019-06-26T08:27:21.534Z,27.59
2019-06-26T08:28:21.549Z,27.71
2019-06-26T08:29:21.521Z,27.75
2019-06-26T08:30:21.508Z,27.78
2019-06-26T08:31:21.493Z,27.75
2019-06-26T08:32:21.564Z,27.87
2019-06-26T08:33:21.478Z,27.93
2019-06-26T08:34:21.473Z,28.08
2019-06-26T08:35:21.450Z,28.12
2019-06-26T08:36:21.436Z,28.08
2019-06-26T08:37:21.442Z,28.10
2019-06-26T08:38:21.429Z,28.25
2019-06-26T08:39:21.401Z,28.25
2019-06-26T08:40:21.423Z,28.38
2019-06-26T08:41:21.380Z,28.29
2019-06-26T08:42:21.378Z,28.30
2019-06-26T08:43:21.388Z,28.42
2019-06-26T08:44:21.350Z,28.26
2019-06-26T08:45:21.374Z,28.17
2019-06-26T08:46:21.363Z,28.25
2019-06-26T08:47:21.313Z,28.17
2019-06-26T08:48:38.316Z,28.07
2019-06-26T08:49:25.896Z,28.02
2019-06-26T08:50:21.282Z,28.22
2019-06-26T08:51:21.278Z,28.29
2019-06-26T08:52:21.290Z,28.27
2019-06-26T08:53:21.258Z,28.37
2019-06-26T08:54:21.247Z,28.30
2019-06-26T08:55:21.254Z,28.33
2019-06-26T08:56:21.220Z,28.26
2019-06-26T08:57:21.217Z,28.38
2019-06-26T08:58:21.198Z,28.35
2019-06-26T08:59:21.205Z,28.45
2019-06-26T09:00:21.171Z,28.63
2019-06-26T09:01:21.296Z,28.70
2019-06-26T09:02:21.193Z,28.64
2019-06-26T09:03:21.163Z,28.67
2019-06-26T09:04:21.134Z,28.74
2019-06-26T09:05:21.130Z,28.81
2019-06-26T09:06:21.189Z,28.81
2019-06-26T09:07:21.121Z,28.75
2019-06-26T09:08:21.245Z,28.86
2019-06-26T09:09:21.090Z,29.04
2019-06-26T09:10:21.092Z,29.12
2019-06-26T09:11:21.066Z,29.08
2019-06-26T09:12:21.058Z,29.07
2019-06-26T09:13:21.052Z,29.05
2019-06-26T09:14:21.058Z,29.01
2019-06-26T09:15:21.015Z,29.07
2019-06-26T09:16:21.048Z,29.10
2019-06-26T09:17:21.007Z,29.13
2019-06-26T09:18:34.749Z,29.14
2019-06-26T09:19:21.978Z,29.14
2019-06-26T09:20:20.958Z,29.19
2019-06-26T09:21:20.962Z,29.20
2019-06-26T09:22:20.941Z,29.10
2019-06-26T09:23:20.925Z,29.13
2019-06-26T09:24:20.937Z,29.20
2019-06-26T09:25:22.598Z,29.42
2019-06-26T09:26:20.895Z,29.39
2019-06-26T09:27:20.903Z,29.51
2019-06-26T09:28:20.866Z,29.68
2019-06-26T09:29:23.675Z,29.81
2019-06-26T09:30:20.866Z,29.91
2019-06-26T09:31:20.919Z,29.95
2019-06-26T09:32:20.850Z,29.95
2019-06-26T09:33:20.819Z,29.94
2019-06-26T09:34:20.807Z,29.93
2019-06-26T09:35:20.799Z,29.94
2019-06-26T09:36:20.798Z,29.94
2019-06-26T09:37:20.775Z,30.06
2019-06-26T09:38:20.766Z,30.13
2019-06-26T09:39:20.750Z,30.06
2019-06-26T09:40:20.738Z,30.08
2019-06-26T09:41:20.727Z,30.18
2019-06-26T09:42:20.738Z,30.19
2019-06-26T09:43:20.702Z,30.21
2019-06-26T09:44:20.738Z,30.18
2019-06-26T09:45:20.682Z,30.08
2019-06-26T09:46:20.686Z,30.12
2019-06-26T09:47:20.670Z,30.12
2019-06-26T09:48:20.682Z,30.18
2019-06-26T09:49:20.639Z,30.00
2019-06-26T09:50:20.648Z,29.93
2019-06-26T09:51:20.634Z,29.97
2019-06-26T09:52:20.658Z,29.93
2019-06-26T09:53:20.604Z,29.98
2019-06-26T09:54:20.605Z,30.00
2019-06-26T09:55:20.594Z,29.94
2019-06-26T09:56:20.558Z,30.02
2019-06-26T09:57:20.570Z,30.15
2019-06-26T09:58:20.543Z,29.97
2019-06-26T09:59:20.545Z,30.06
2019-06-26T10:00:20.526Z,30.09
2019-06-26T10:01:20.566Z,30.12
2019-06-26T10:02:20.494Z,30.10
2019-06-26T10:03:20.497Z,30.09
2019-06-26T10:04:20.478Z,29.94
2019-06-26T10:05:20.597Z,29.95
2019-06-26T10:06:20.460Z,29.88
2019-06-26T10:07:20.478Z,29.86
2019-06-26T10:08:20.431Z,29.91
2019-06-26T10:09:20.423Z,29.87
2019-06-26T10:10:20.439Z,29.94
2019-06-26T10:11:20.398Z,29.93
2019-06-26T10:12:20.390Z,29.95
2019-06-26T10:13:20.402Z,30.06
2019-06-26T10:14:20.378Z,30.18
2019-06-26T10:15:20.358Z,30.39
2019-06-26T10:16:20.376Z,30.19
2019-06-26T10:17:20.331Z,30.21
2019-06-26T10:18:20.364Z,30.31
2019-06-26T10:19:20.309Z,30.39
2019-06-26T10:20:20.318Z,30.43
2019-06-26T10:21:23.521Z,30.44
2019-06-26T10:22:20.301Z,30.28
2019-06-26T10:23:20.318Z,30.15
2019-06-26T10:24:20.262Z,30.15
2019-06-26T10:25:20.250Z,30.12
2019-06-26T10:26:20.263Z,30.23
2019-06-26T10:27:20.236Z,30.24
2019-06-26T10:28:20.238Z,30.48
2019-06-26T10:29:20.207Z,30.43
2019-06-26T10:30:20.244Z,30.31
2019-06-26T10:31:20.200Z,30.37
2019-06-26T10:32:20.187Z,30.46
2019-06-26T10:33:20.178Z,30.40
2019-06-26T10:34:20.149Z,30.34
2019-06-26T10:35:20.219Z,30.44
2019-06-26T10:36:20.134Z,30.39
2019-06-26T10:37:20.121Z,30.59
2019-06-26T10:38:20.327Z,30.68
2019-06-26T10:39:20.118Z,30.72
2019-06-26T10:40:20.095Z,30.66
2019-06-26T10:41:20.078Z,30.59
2019-06-26T10:42:20.062Z,30.35
2019-06-26T10:43:20.052Z,30.37
2019-06-26T10:44:20.042Z,30.37
2019-06-26T10:45:20.076Z,30.39
2019-06-26T10:46:20.018Z,30.40
2019-06-26T10:47:20.014Z,30.39
2019-06-26T10:48:20.026Z,30.51
2019-06-26T10:49:27.068Z,30.47
2019-06-26T10:50:21.006Z,30.51
2019-06-26T10:51:19.962Z,30.51
2019-06-26T10:52:19.959Z,30.51
2019-06-26T10:53:19.956Z,30.65
2019-06-26T10:54:19.938Z,30.80
2019-06-26T10:55:19.957Z,30.75
2019-06-26T10:56:19.926Z,30.87
2019-06-26T10:57:19.906Z,30.70
2019-06-26T10:58:19.890Z,30.63
2019-06-26T10:59:19.906Z,30.75
2019-06-26T11:00:19.871Z,30.72
2019-06-26T11:01:19.858Z,30.68
2019-06-26T11:02:19.870Z,30.70
2019-06-26T11:03:19.843Z,30.69
2019-06-26T11:04:19.854Z,30.70
2019-06-26T11:05:19.815Z,30.77
2019-06-26T11:06:19.802Z,30.87
2019-06-26T11:07:19.815Z,31.03
2019-06-26T11:08:19.786Z,30.97
2019-06-26T11:09:19.778Z,31.12
2019-06-26T11:10:19.793Z,31.14
2019-06-26T11:11:19.759Z,31.29
2019-06-26T11:12:19.748Z,31.27
2019-06-26T11:13:19.738Z,31.05
2019-06-26T11:14:19.759Z,31.05
2019-06-26T11:15:19.740Z,31.05
2019-06-26T11:16:19.710Z,30.96
2019-06-26T11:17:19.699Z,31.02
2019-06-26T11:18:19.686Z,30.99
2019-06-26T11:19:19.668Z,31.05
2019-06-26T11:20:19.669Z,30.99
2019-06-26T11:21:19.655Z,31.17
2019-06-26T11:22:19.658Z,31.34
2019-06-26T11:23:19.624Z,31.43
2019-06-26T11:24:19.629Z,31.54
2019-06-26T11:25:19.617Z,31.44
2019-06-26T11:26:19.600Z,31.36
2019-06-26T11:27:19.582Z,31.39
2019-06-26T11:28:19.569Z,31.29
2019-06-26T11:29:19.584Z,31.14
2019-06-26T11:30:19.553Z,31.24
2019-06-26T11:31:19.535Z,31.14
2019-06-26T11:32:19.553Z,31.20
2019-06-26T11:33:19.553Z,31.21
2019-06-26T11:34:19.502Z,31.18
2019-06-26T11:35:19.532Z,31.14
2019-06-26T11:36:19.483Z,30.99
2019-06-26T11:37:22.829Z,30.92
2019-06-26T11:38:19.470Z,31.03
2019-06-26T11:39:19.463Z,30.99
2019-06-26T11:40:19.475Z,31.05
2019-06-26T11:41:19.445Z,31.21
2019-06-26T11:42:19.426Z,31.37
2019-06-26T11:43:19.410Z,31.39
2019-06-26T11:44:19.398Z,31.28
2019-06-26T11:45:19.385Z,31.18
2019-06-26T11:46:19.417Z,31.36
2019-06-26T11:47:19.367Z,31.37
2019-06-26T11:48:19.357Z,31.36
2019-06-26T11:49:19.343Z,31.33
2019-06-26T11:50:19.342Z,31.39
2019-06-26T11:51:19.463Z,31.59
2019-06-26T11:52:19.334Z,31.51
2019-06-26T11:53:19.380Z,31.46
2019-06-26T11:54:19.301Z,31.40
2019-06-26T11:55:19.396Z,31.40
2019-06-26T11:56:19.265Z,31.42
2019-06-26T11:57:19.269Z,31.39
2019-06-26T11:58:19.252Z,31.31
2019-06-26T11:59:19.242Z,31.14
2019-06-26T12:00:19.226Z,31.25
2019-06-26T12:01:19.229Z,31.22
2019-06-26T12:02:19.267Z,30.94
2019-06-26T12:03:19.194Z,30.96
2019-06-26T12:04:19.198Z,30.94
2019-06-26T12:05:19.191Z,31.02
2019-06-26T12:06:19.524Z,30.97
2019-06-26T12:07:19.147Z,30.90
2019-06-26T12:08:19.201Z,30.91
2019-06-26T12:09:19.135Z,31.06
2019-06-26T12:10:19.172Z,31.06
2019-06-26T12:11:19.168Z,31.10
2019-06-26T12:12:19.168Z,31.14
2019-06-26T12:13:19.106Z,31.17
2019-06-26T12:14:19.108Z,31.10
2019-06-26T12:15:19.070Z,31.25
2019-06-26T12:16:19.129Z,31.22
2019-06-26T12:17:19.049Z,31.24
2019-06-26T12:18:19.053Z,31.00
2019-06-26T12:19:22.510Z,30.94
2019-06-26T12:20:19.970Z,31.00
2019-06-26T12:21:19.005Z,30.92
2019-06-26T12:22:18.989Z,31.17
2019-06-26T12:23:18.982Z,31.28
2019-06-26T12:24:18.978Z,31.37
2019-06-26T12:25:18.953Z,31.34
2019-06-26T12:26:18.944Z,31.03
2019-06-26T12:27:18.937Z,30.92
2019-06-26T12:28:18.951Z,30.84
2019-06-26T12:29:18.934Z,30.97
2019-06-26T12:30:18.901Z,31.02
2019-06-26T12:31:18.886Z,30.97
2019-06-26T12:32:18.877Z,31.05
2019-06-26T12:33:18.885Z,30.99
2019-06-26T12:34:18.861Z,31.18
2019-06-26T12:35:18.868Z,31.29
2019-06-26T12:36:18.838Z,31.15
2019-06-26T12:37:18.833Z,31.12
2019-06-26T12:38:18.838Z,30.94
2019-06-26T12:39:18.802Z,30.99
2019-06-26T12:40:18.825Z,31.02
2019-06-26T12:41:18.805Z,31.28
2019-06-26T12:42:18.803Z,31.39
2019-06-26T12:43:18.762Z,31.29
2019-06-26T12:44:18.767Z,31.10
2019-06-26T12:45:18.751Z,31.15
2019-06-26T12:46:18.737Z,31.24
2019-06-26T12:47:18.742Z,31.29
2019-06-26T12:48:18.712Z,31.43
2019-06-26T12:49:18.694Z,31.43
2019-06-26T12:50:34.111Z,31.58
2019-06-26T12:51:19.681Z,31.64
2019-06-26T12:52:18.682Z,31.78
2019-06-26T12:53:18.657Z,31.77
2019-06-26T12:54:18.725Z,31.73